Ward Prairie, Texas
Current Conditions -  °F | °C
As of 10:53 AM on Friday 24 Oct 2014 (Local Time) from KCRS Reporting Station
Broken Clouds Broken Clouds  
Wind Chill: 69°   Ceiling: 6000
Heat Index: 69°   Visibility: 10mi
Dew Point: 52°   Wind: 6mph
Humidity: 54%   Direction: 160°SSE
Pressure: 30.21"   Gusts: NA
Location:  31.8162°N, 96.1239°W
Report Text: KCRS 241553Z AUTO 16005KT 10SM BKN060 21/11 A3021 RMK AO2 SLP226 T02060111
Loading
Personal Weather Stations






























Interactive Weather Map
Tropical Storm Tracking
New forecast layout! Learn more

10-Day Weather Forecast

Advertisements
Track Severe Weather on mobile